Archival Weather

Yakutsk

Yakutsk, Russia (UEEE)

Report from: Sunday, February 5, 2023 1:30 AM JST
Current time: Sunday, July 14, 2024 11:04 AM JST

Current weather – Weather history – Daily summaries
Weather forecast

Present weatherFog
Temperature-42.0°C (-43.6°F)
Dew point-46.0°C (-50.8°F)
Winds Calm
Visibility1968.5 ft. (600 m)
Altimeter30.06 in.Hg (1018 mB)
Precip. events QF 3:34 AM
Relative humidity65 %
Density altitude-7,877 ft. (-2,401 m)
Remarks No significant changes expected in the next two hours
Flight conditions Low Instrument Meteorological Conditions
Raw dataUEEE 041630Z 00000MPS 0600 R23L/1400N FG NSC M42/M46 Q1018 R23L/490150 NOSIG RMK QFE754
An error has occurred. This application may no longer respond until reloaded. Reload 🗙